sensor_id;sensor_type;location;lat;lon;timestamp;pressure;altitude;pressure_sealevel;temperature;humidity
70546;BME280;58098;51.680;5.134;2023-03-03T00:00:07;102528.31;;;0.57;100.00
70546;BME280;58098;51.680;5.134;2023-03-03T00:02:32;102536.81;;;0.62;100.00
70546;BME280;58098;51.680;5.134;2023-03-03T00:04:58;102553.00;;;0.69;100.00
70546;BME280;58098;51.680;5.134;2023-03-03T00:07:23;102558.06;;;0.74;100.00
70546;BME280;58098;51.680;5.134;2023-03-03T00:09:49;102547.09;;;0.62;100.00
70546;BME280;58098;51.680;5.134;2023-03-03T00:12:26;102559.78;;;0.75;100.00
70546;BME280;58098;51.680;5.134;2023-03-03T00:14:52;102552.22;;;0.62;100.00
70546;BME280;58098;51.680;5.134;2023-03-03T00:17:28;102568.44;;;0.66;100.00
70546;BME280;58098;51.680;5.134;2023-03-03T00:19:54;102567.53;;;0.68;100.00
70546;BME280;58098;51.680;5.134;2023-03-03T00:22:32;102559.03;;;0.63;100.00
70546;BME280;58098;51.680;5.134;2023-03-03T00:27:54;102569.38;;;0.60;100.00
70546;BME280;58098;51.680;5.134;2023-03-03T00:30:23;102559.97;;;0.58;100.00
70546;BME280;58098;51.680;5.134;2023-03-03T00:32:50;102553.16;;;0.55;100.00
70546;BME280;58098;51.680;5.134;2023-03-03T00:35:31;102566.81;;;0.57;100.00
70546;BME280;58098;51.680;5.134;2023-03-03T00:38:16;102562.59;;;0.53;100.00
70546;BME280;58098;51.680;5.134;2023-03-03T00:40:42;102559.25;;;0.45;100.00
70546;BME280;58098;51.680;5.134;2023-03-03T00:43:17;102560.91;;;0.46;100.00
70546;BME280;58098;51.680;5.134;2023-03-03T00:45:48;102558.41;;;0.43;100.00
70546;BME280;58098;51.680;5.134;2023-03-03T00:48:23;102552.38;;;0.44;100.00
70546;BME280;58098;51.680;5.134;2023-03-03T00:50:50;102542.25;;;0.32;100.00
70546;BME280;58098;51.680;5.134;2023-03-03T00:53:17;102573.72;;;0.52;100.00
70546;BME280;58098;51.680;5.134;2023-03-03T00:55:45;102555.88;;;0.40;100.00
70546;BME280;58098;51.680;5.134;2023-03-03T00:58:10;102570.28;;;0.52;100.00
70546;BME280;58098;51.680;5.134;2023-03-03T01:00:36;102569.34;;;0.62;100.00
70546;BME280;58098;51.680;5.134;2023-03-03T01:03:07;102573.56;;;0.68;100.00
70546;BME280;58098;51.680;5.134;2023-03-03T01:05:33;102554.78;;;0.61;100.00
70546;BME280;58098;51.680;5.134;2023-03-03T01:07:59;102579.28;;;0.91;100.00
70546;BME280;58098;51.680;5.134;2023-03-03T01:10:26;102554.53;;;0.84;100.00
70546;BME280;58098;51.680;5.134;2023-03-03T01:12:53;102568.94;;;1.00;100.00
70546;BME280;58098;51.680;5.134;2023-03-03T01:15:18;102570.56;;;1.07;100.00
70546;BME280;58098;51.680;5.134;2023-03-03T01:17:44;102565.38;;;1.08;100.00
70546;BME280;58098;51.680;5.134;2023-03-03T01:20:12;102558.63;;;1.01;100.00
70546;BME280;58098;51.680;5.134;2023-03-03T01:22:38;102574.00;;;1.06;100.00
70546;BME280;58098;51.680;5.134;2023-03-03T01:25:04;102564.66;;;0.99;100.00
70546;BME280;58098;51.680;5.134;2023-03-03T01:27:30;102572.34;;;1.00;100.00
70546;BME280;58098;51.680;5.134;2023-03-03T01:29:56;102584.25;;;1.06;100.00
70546;BME280;58098;51.680;5.134;2023-03-03T01:32:25;102568.88;;;1.03;100.00
70546;BME280;58098;51.680;5.134;2023-03-03T01:34:52;102565.44;;;1.07;100.00
70546;BME280;58098;51.680;5.134;2023-03-03T01:37:18;102579.00;;;1.15;100.00
70546;BME280;58098;51.680;5.134;2023-03-03T01:39:48;102565.38;;;1.11;100.00
70546;BME280;58098;51.680;5.134;2023-03-03T01:42:14;102568.84;;;1.06;100.00
70546;BME280;58098;51.680;5.134;2023-03-03T01:44:40;102584.94;;;1.20;100.00
70546;BME280;58098;51.680;5.134;2023-03-03T01:47:21;102577.25;;;1.17;100.00
70546;BME280;58098;51.680;5.134;2023-03-03T01:50:09;102578.91;;;1.22;100.00
70546;BME280;58098;51.680;5.134;2023-03-03T01:52:41;102580.69;;;1.19;100.00
70546;BME280;58098;51.680;5.134;2023-03-03T01:55:21;102564.47;;;1.14;100.00
70546;BME280;58098;51.680;5.134;2023-03-03T01:58:10;102567.03;;;1.14;100.00
70546;BME280;58098;51.680;5.134;2023-03-03T02:00:40;102563.75;;;1.03;100.00
70546;BME280;58098;51.680;5.134;2023-03-03T02:03:06;102563.66;;;1.12;100.00
70546;BME280;58098;51.680;5.134;2023-03-03T02:05:32;102579.09;;;1.09;100.00
70546;BME280;58098;51.680;5.134;2023-03-03T02:07:59;102568.84;;;1.06;100.00
70546;BME280;58098;51.680;5.134;2023-03-03T02:10:25;102574.00;;;1.03;100.00
70546;BME280;58098;51.680;5.134;2023-03-03T02:12:53;102591.91;;;1.12;100.00
70546;BME280;58098;51.680;5.134;2023-03-03T02:17:46;102568.00;;;1.05;100.00
70546;BME280;58098;51.680;5.134;2023-03-03T02:20:26;102567.22;;;0.99;100.00
70546;BME280;58098;51.680;5.134;2023-03-03T02:22:59;102585.84;;;1.17;100.00
70546;BME280;58098;51.680;5.134;2023-03-03T02:25:38;102560.22;;;1.10;100.00
70546;BME280;58098;51.680;5.134;2023-03-03T02:28:06;102574.81;;;1.09;100.00
70546;BME280;58098;51.680;5.134;2023-03-03T02:30:36;102581.66;;;1.09;100.00
70546;BME280;58098;51.680;5.134;2023-03-03T02:33:03;102569.69;;;1.05;100.00
70546;BME280;58098;51.680;5.134;2023-03-03T02:35:37;102574.69;;;1.17;100.00
70546;BME280;58098;51.680;5.134;2023-03-03T02:38:12;102567.16;;;1.03;100.00
70546;BME280;58098;51.680;5.134;2023-03-03T02:40:43;102565.44;;;1.04;100.00
70546;BME280;58098;51.680;5.134;2023-03-03T02:43:12;102570.50;;;1.10;100.00
70546;BME280;58098;51.680;5.134;2023-03-03T02:45:44;102565.34;;;1.13;100.00
70546;BME280;58098;51.680;5.134;2023-03-03T02:48:09;102579.00;;;1.16;100.00
70546;BME280;58098;51.680;5.134;2023-03-03T02:50:35;102579.84;;;1.18;100.00
70546;BME280;58098;51.680;5.134;2023-03-03T02:53:01;102573.06;;;1.11;100.00
70546;BME280;58098;51.680;5.134;2023-03-03T02:55:26;102557.66;;;1.11;100.00
70546;BME280;58098;51.680;5.134;2023-03-03T02:57:51;102561.84;;;1.17;100.00
70546;BME280;58098;51.680;5.134;2023-03-03T03:00:17;102570.41;;;1.19;100.00
70546;BME280;58098;51.680;5.134;2023-03-03T03:02:42;102561.84;;;1.17;100.00
70546;BME280;58098;51.680;5.134;2023-03-03T03:05:08;102561.91;;;1.14;100.00
70546;BME280;58098;51.680;5.134;2023-03-03T03:07:33;102570.44;;;1.16;100.00
70546;BME280;58098;51.680;5.134;2023-03-03T03:09:59;102578.06;;;1.22;100.00
70546;BME280;58098;51.680;5.134;2023-03-03T03:12:24;102567.94;;;1.11;100.00
70546;BME280;58098;51.680;5.134;2023-03-03T03:14:49;102568.72;;;1.15;100.00
70546;BME280;58098;51.680;5.134;2023-03-03T03:17:15;102575.63;;;1.10;100.00
70546;BME280;58098;51.680;5.134;2023-03-03T03:19:40;102580.72;;;1.16;100.00
70546;BME280;58098;51.680;5.134;2023-03-03T03:22:05;102566.25;;;1.07;100.00
70546;BME280;58098;51.680;5.134;2023-03-03T03:24:30;102579.06;;;1.12;100.00
70546;BME280;58098;51.680;5.134;2023-03-03T03:26:56;102588.44;;;1.16;100.00
70546;BME280;58098;51.680;5.134;2023-03-03T03:29:21;102576.59;;;1.03;100.00
70546;BME280;58098;51.680;5.134;2023-03-03T03:31:47;102574.84;;;1.06;100.00
70546;BME280;58098;51.680;5.134;2023-03-03T03:34:12;102592.75;;;1.14;100.00
70546;BME280;58098;51.680;5.134;2023-03-03T03:36:37;102576.41;;;1.18;100.00
70546;BME280;58098;51.680;5.134;2023-03-03T03:39:04;102577.34;;;1.11;100.00
70546;BME280;58098;51.680;5.134;2023-03-03T03:41:30;102586.66;;;1.19;100.00
70546;BME280;58098;51.680;5.134;2023-03-03T03:43:55;102588.22;;;1.32;100.00
70546;BME280;58098;51.680;5.134;2023-03-03T03:46:21;102580.66;;;1.20;100.00
70546;BME280;58098;51.680;5.134;2023-03-03T03:48:46;102589.06;;;1.31;100.00
70546;BME280;58098;51.680;5.134;2023-03-03T03:51:11;102568.66;;;1.21;100.00
70546;BME280;58098;51.680;5.134;2023-03-03T03:53:37;102579.72;;;1.27;100.00
70546;BME280;58098;51.680;5.134;2023-03-03T03:56:02;102583.19;;;1.25;100.00
70546;BME280;58098;51.680;5.134;2023-03-03T03:58:27;102592.56;;;1.29;100.00
70546;BME280;58098;51.680;5.134;2023-03-03T04:00:53;102583.19;;;1.26;100.00
70546;BME280;58098;51.680;5.134;2023-03-03T04:03:18;102584.00;;;1.27;100.00
70546;BME280;58098;51.680;5.134;2023-03-03T04:05:44;102585.75;;;1.25;100.00
70546;BME280;58098;51.680;5.134;2023-03-03T04:08:09;102584.00;;;1.27;100.00
70546;BME280;58098;51.680;5.134;2023-03-03T04:10:35;102604.50;;;1.33;100.00
70546;BME280;58098;51.680;5.134;2023-03-03T04:13:01;102602.81;;;1.30;100.00
70546;BME280;58098;51.680;5.134;2023-03-03T04:15:26;102589.09;;;1.30;100.00
70546;BME280;58098;51.680;5.134;2023-03-03T04:17:51;102594.22;;;1.33;100.00
70546;BME280;58098;51.680;5.134;2023-03-03T04:20:17;102583.19;;;1.26;100.00
70546;BME280;58098;51.680;5.134;2023-03-03T04:22:42;102599.38;;;1.33;100.00
70546;BME280;58098;51.680;5.134;2023-03-03T04:25:13;102578.94;;;1.19;100.00
70546;BME280;58098;51.680;5.134;2023-03-03T04:27:39;102598.38;;;1.43;100.00
70546;BME280;58098;51.680;5.134;2023-03-03T04:30:05;102595.91;;;1.34;100.00
70546;BME280;58098;51.680;5.134;2023-03-03T04:32:31;102587.50;;;1.23;100.00
70546;BME280;58098;51.680;5.134;2023-03-03T04:34:58;102606.25;;;1.31;100.00
70546;BME280;58098;51.680;5.134;2023-03-03T04:37:23;102597.72;;;1.27;100.00
70546;BME280;58098;51.680;5.134;2023-03-03T04:39:49;102599.53;;;1.18;100.00
70546;BME280;58098;51.680;5.134;2023-03-03T04:42:14;102609.75;;;1.22;100.00
70546;BME280;58098;51.680;5.134;2023-03-03T04:44:39;102605.47;;;1.23;100.00
70546;BME280;58098;51.680;5.134;2023-03-03T04:47:05;102612.28;;;1.28;100.00
70546;BME280;58098;51.680;5.134;2023-03-03T04:49:30;102595.25;;;1.18;100.00
70546;BME280;58098;51.680;5.134;2023-03-03T04:51:56;102591.81;;;1.21;100.00
70546;BME280;58098;51.680;5.134;2023-03-03T04:54:22;102614.00;;;1.28;100.00
70546;BME280;58098;51.680;5.134;2023-03-03T04:56:47;102613.09;;;1.30;100.00
70546;BME280;58098;51.680;5.134;2023-03-03T04:59:13;102613.94;;;1.32;100.00
70546;BME280;58098;51.680;5.134;2023-03-03T05:01:39;102615.72;;;1.29;100.00
70546;BME280;58098;51.680;5.134;2023-03-03T05:04:05;102598.69;;;1.19;100.00
70546;BME280;58098;51.680;5.134;2023-03-03T05:06:30;102617.47;;;1.22;100.00
70546;BME280;58098;51.680;5.134;2023-03-03T05:08:55;102620.84;;;1.29;100.00
70546;BME280;58098;51.680;5.134;2023-03-03T05:11:21;102601.28;;;1.16;100.00
70546;BME280;58098;51.680;5.134;2023-03-03T05:13:46;102606.41;;;1.19;100.00
70546;BME280;58098;51.680;5.134;2023-03-03T05:16:11;102627.69;;;1.27;100.00
70546;BME280;58098;51.680;5.134;2023-03-03T05:18:37;102614.91;;;1.24;100.00
70546;BME280;58098;51.680;5.134;2023-03-03T05:21:02;102603.13;;;1.05;100.00
70546;BME280;58098;51.680;5.134;2023-03-03T05:23:27;102623.38;;;1.30;100.00
70546;BME280;58098;51.680;5.134;2023-03-03T05:25:53;102616.72;;;1.16;100.00
70546;BME280;58098;51.680;5.134;2023-03-03T05:28:18;102602.16;;;1.15;100.00
70546;BME280;58098;51.680;5.134;2023-03-03T05:30:43;102601.28;;;1.16;100.00
70546;BME280;58098;51.680;5.134;2023-03-03T05:33:12;102613.31;;;1.14;100.00
70546;BME280;58098;51.680;5.134;2023-03-03T05:35:37;102629.44;;;1.25;100.00
70546;BME280;58098;51.680;5.134;2023-03-03T05:38:03;102613.97;;;1.31;100.00
70546;BME280;58098;51.680;5.134;2023-03-03T05:40:28;102621.63;;;1.34;100.00
70546;BME280;58098;51.680;5.134;2023-03-03T05:42:53;102586.88;;;1.04;100.00
70546;BME280;58098;51.680;5.134;2023-03-03T05:45:19;102615.66;;;1.32;100.00
70546;BME280;58098;51.680;5.134;2023-03-03T05:47:51;102623.50;;;1.20;100.00
70546;BME280;58098;51.680;5.134;2023-03-03T05:50:18;102618.38;;;1.21;100.00
70546;BME280;58098;51.680;5.134;2023-03-03T05:52:46;102628.56;;;1.27;100.00
70546;BME280;58098;51.680;5.134;2023-03-03T05:55:11;102630.25;;;1.30;100.00
70546;BME280;58098;51.680;5.134;2023-03-03T05:57:36;102635.34;;;1.33;100.00
70546;BME280;58098;51.680;5.134;2023-03-03T06:00:04;102624.31;;;1.25;100.00
70546;BME280;58098;51.680;5.134;2023-03-03T06:02:30;102641.38;;;1.30;100.00
70546;BME280;58098;51.680;5.134;2023-03-03T06:04:55;102630.38;;;1.21;100.00
70546;BME280;58098;51.680;5.134;2023-03-03T06:07:20;102634.69;;;1.19;100.00
70546;BME280;58098;51.680;5.134;2023-03-03T06:09:45;102640.50;;;1.33;100.00
70546;BME280;58098;51.680;5.134;2023-03-03T06:12:11;102638.97;;;1.17;100.00
70546;BME280;58098;51.680;5.134;2023-03-03T06:14:36;102653.50;;;1.21;100.00
70546;BME280;58098;51.680;5.134;2023-03-03T06:17:01;102652.69;;;1.16;100.00
70546;BME280;58098;51.680;5.134;2023-03-03T06:19:27;102656.97;;;1.15;100.00
70546;BME280;58098;51.680;5.134;2023-03-03T06:21:52;102656.94;;;1.18;100.00
70546;BME280;58098;51.680;5.134;2023-03-03T06:24:18;102645.03;;;1.11;100.00
70546;BME280;58098;51.680;5.134;2023-03-03T06:26:43;102656.09;;;1.18;100.00
70546;BME280;58098;51.680;5.134;2023-03-03T06:29:08;102669.78;;;1.20;100.00
70546;BME280;58098;51.680;5.134;2023-03-03T06:31:34;102661.25;;;1.16;100.00
70546;BME280;58098;51.680;5.134;2023-03-03T06:33:59;102664.66;;;1.17;100.00
70546;BME280;58098;51.680;5.134;2023-03-03T06:36:25;102674.91;;;1.21;100.00
70546;BME280;58098;51.680;5.134;2023-03-03T06:38:50;102657.88;;;1.13;100.00
70546;BME280;58098;51.680;5.134;2023-03-03T06:41:16;102668.97;;;1.15;100.00
70546;BME280;58098;51.680;5.134;2023-03-03T06:43:41;102665.56;;;1.14;100.00
70546;BME280;58098;51.680;5.134;2023-03-03T06:46:06;102688.56;;;1.25;100.00
70546;BME280;58098;51.680;5.134;2023-03-03T06:48:32;102674.94;;;1.17;100.00
70546;BME280;58098;51.680;5.134;2023-03-03T06:50:59;102686.09;;;1.16;100.00
70546;BME280;58098;51.680;5.134;2023-03-03T06:53:26;102693.75;;;1.22;100.00
70546;BME280;58098;51.680;5.134;2023-03-03T06:55:51;102694.63;;;1.21;100.00
70546;BME280;58098;51.680;5.134;2023-03-03T06:58:20;102694.59;;;1.22;100.00
70546;BME280;58098;51.680;5.134;2023-03-03T07:00:54;102692.09;;;1.18;100.00
70546;BME280;58098;51.680;5.134;2023-03-03T07:03:23;102685.19;;;1.20;100.00
70546;BME280;58098;51.680;5.134;2023-03-03T07:05:49;102700.56;;;1.29;100.00
70546;BME280;58098;51.680;5.134;2023-03-03T07:08:18;102657.06;;;1.05;100.00
70546;BME280;58098;51.680;5.134;2023-03-03T07:10:45;102688.56;;;1.25;100.00
70546;BME280;58098;51.680;5.134;2023-03-03T07:13:27;102710.78;;;1.32;100.00
70546;BME280;58098;51.680;5.134;2023-03-03T07:15:55;102693.78;;;1.20;100.00
70546;BME280;58098;51.680;5.134;2023-03-03T07:21:16;102707.34;;;1.33;100.00
70546;BME280;58098;51.680;5.134;2023-03-03T07:23:43;102690.25;;;1.30;100.00
70546;BME280;58098;51.680;5.134;2023-03-03T07:26:33;102715.75;;;1.47;100.00
70546;BME280;58098;51.680;5.134;2023-03-03T07:31:36;102718.31;;;1.49;100.00
70546;BME280;58098;51.680;5.134;2023-03-03T07:34:15;102706.31;;;1.46;100.00
70546;BME280;58098;51.680;5.134;2023-03-03T07:36:43;102714.06;;;1.45;100.00
70546;BME280;58098;51.680;5.134;2023-03-03T07:39:23;102731.03;;;1.62;100.00
70546;BME280;58098;51.680;5.134;2023-03-03T07:41:49;102715.66;;;1.56;100.00
70546;BME280;58098;51.680;5.134;2023-03-03T07:44:21;102711.34;;;1.60;100.00
70546;BME280;58098;51.680;5.134;2023-03-03T07:46:50;102729.22;;;1.70;100.00
70546;BME280;58098;51.680;5.134;2023-03-03T07:51:53;102718.84;;;1.76;100.00
70546;BME280;58098;51.680;5.134;2023-03-03T07:56:49;102734.22;;;1.82;100.00
70546;BME280;58098;51.680;5.134;2023-03-03T07:59:25;102727.25;;;1.87;100.00
70546;BME280;58098;51.680;5.134;2023-03-03T08:01:53;102728.84;;;1.97;100.00
70546;BME280;58098;51.680;5.134;2023-03-03T08:04:31;102726.28;;;1.97;100.00
70546;BME280;58098;51.680;5.134;2023-03-03T08:07:02;102741.47;;;2.17;100.00
70546;BME280;58098;51.680;5.134;2023-03-03T08:09:50;102743.03;;;2.29;100.00
70546;BME280;58098;51.680;5.134;2023-03-03T08:14:53;102730.28;;;2.20;100.00
70546;BME280;58098;51.680;5.134;2023-03-03T08:17:22;102730.25;;;2.21;100.00
70546;BME280;58098;51.680;5.134;2023-03-03T08:19:49;102736.22;;;2.26;100.00
70546;BME280;58098;51.680;5.134;2023-03-03T08:22:37;102744.72;;;2.30;100.00
70546;BME280;58098;51.680;5.134;2023-03-03T08:25:02;102751.47;;;2.37;100.00
70546;BME280;58098;51.680;5.134;2023-03-03T08:27:29;102765.16;;;2.42;100.00
70546;BME280;58098;51.680;5.134;2023-03-03T08:29:54;102752.38;;;2.36;100.00
70546;BME280;58098;51.680;5.134;2023-03-03T08:32:20;102758.25;;;2.44;100.00
70546;BME280;58098;51.680;5.134;2023-03-03T08:34:45;102752.28;;;2.43;100.00
70546;BME280;58098;51.680;5.134;2023-03-03T08:37:10;102760.72;;;2.53;100.00
70546;BME280;58098;51.680;5.134;2023-03-03T08:39:36;102766.69;;;2.55;100.00
70546;BME280;58098;51.680;5.134;2023-03-03T08:42:01;102761.50;;;2.58;100.00
70546;BME280;58098;51.680;5.134;2023-03-03T08:44:26;102764.88;;;2.61;100.00
70546;BME280;58098;51.680;5.134;2023-03-03T08:46:51;102755.56;;;2.53;100.00
70546;BME280;58098;51.680;5.134;2023-03-03T08:49:17;102772.53;;;2.66;100.00
70546;BME280;58098;51.680;5.134;2023-03-03T08:51:42;102778.31;;;2.80;100.00
70546;BME280;58098;51.680;5.134;2023-03-03T08:54:08;102763.75;;;2.78;100.00
70546;BME280;58098;51.680;5.134;2023-03-03T08:56:33;102756.88;;;2.78;100.00
70546;BME280;58098;51.680;5.134;2023-03-03T08:58:58;102778.97;;;2.94;100.00
70546;BME280;58098;51.680;5.134;2023-03-03T09:01:24;102787.47;;;2.99;100.00
70546;BME280;58098;51.680;5.134;2023-03-03T09:03:49;102784.84;;;3.01;100.00
70546;BME280;58098;51.680;5.134;2023-03-03T09:06:14;102781.38;;;3.03;100.00
70546;BME280;58098;51.680;5.134;2023-03-03T09:08:40;102778.88;;;2.99;100.00
70546;BME280;58098;51.680;5.134;2023-03-03T09:11:11;102777.03;;;3.05;100.00
70546;BME280;58098;51.680;5.134;2023-03-03T09:13:37;102793.91;;;3.24;100.00
70546;BME280;58098;51.680;5.134;2023-03-03T09:16:10;102792.09;;;3.29;100.00
70546;BME280;58098;51.680;5.134;2023-03-03T09:18:38;102788.66;;;3.29;100.00
70546;BME280;58098;51.680;5.134;2023-03-03T09:21:25;102769.78;;;3.28;100.00
70546;BME280;58098;51.680;5.134;2023-03-03T09:23:58;102779.16;;;3.32;100.00
70546;BME280;58098;51.680;5.134;2023-03-03T09:28:52;102801.25;;;3.47;100.00
70546;BME280;58098;51.680;5.134;2023-03-03T09:31:27;102783.28;;;3.43;100.00
70546;BME280;58098;51.680;5.134;2023-03-03T09:33:55;102800.31;;;3.51;100.00
70546;BME280;58098;51.680;5.134;2023-03-03T09:36:28;102786.63;;;3.48;100.00
70546;BME280;58098;51.680;5.134;2023-03-03T09:38:56;102787.59;;;3.42;100.00
70546;BME280;58098;51.680;5.134;2023-03-03T09:57:46;102795.56;;;4.17;100.00
70546;BME280;58098;51.680;5.134;2023-03-03T10:00:37;102789.22;;;4.32;100.00
70546;BME280;58098;51.680;5.134;2023-03-03T10:06:28;102792.50;;;4.38;100.00
70546;BME280;58098;51.680;5.134;2023-03-03T10:28:02;102803.25;;;4.95;100.00
70546;BME280;58098;51.680;5.134;2023-03-03T10:36:00;102800.94;;;5.20;100.00
70546;BME280;58098;51.680;5.134;2023-03-03T10:39:12;102811.41;;;5.15;100.00
70546;BME280;58098;51.680;5.134;2023-03-03T10:50:02;102802.47;;;4.92;100.00
70546;BME280;58098;51.680;5.134;2023-03-03T10:53:02;102793.22;;;4.83;
70546;BME280;58098;51.680;5.134;2023-03-03T10:58:42;102798.56;;;4.76;100.00
70546;BME280;58098;51.680;5.134;2023-03-03T11:04:02;102781.50;;;4.68;100.00
70546;BME280;58098;51.680;5.134;2023-03-03T11:07:00;102795.00;;;4.80;100.00
70546;BME280;58098;51.680;5.134;2023-03-03T11:09:39;102791.41;;;4.87;100.00
70546;BME280;58098;51.680;5.134;2023-03-03T11:12:25;102794.34;;;5.07;100.00
70546;BME280;58098;51.680;5.134;2023-03-03T11:17:47;102793.00;;;5.58;100.00
70546;BME280;58098;51.680;5.134;2023-03-03T11:21:14;102799.06;;;5.91;100.00
70546;BME280;58098;51.680;5.134;2023-03-03T11:29:00;102790.28;;;7.06;100.00
70546;BME280;58098;51.680;5.134;2023-03-03T11:31:48;102774.28;;;7.19;100.00
70546;BME280;58098;51.680;5.134;2023-03-03T11:37:09;102770.78;;;6.68;100.00
70546;BME280;58098;51.680;5.134;2023-03-03T11:39:37;102776.97;;;6.64;100.00
70546;BME280;58098;51.680;5.134;2023-03-03T11:50:59;102776.88;;;7.19;100.00
70546;BME280;58098;51.680;5.134;2023-03-03T11:56:31;102767.78;;;6.80;100.00
70546;BME280;58098;51.680;5.134;2023-03-03T12:02:26;102777.47;;;6.75;100.00
70546;BME280;58098;51.680;5.134;2023-03-03T12:07:41;102764.50;;;6.47;100.00
70546;BME280;58098;51.680;5.134;2023-03-03T12:10:36;102764.66;;;6.43;100.00
70546;BME280;58098;51.680;5.134;2023-03-03T12:13:12;102758.09;;;6.31;100.00
70546;BME280;58098;51.680;5.134;2023-03-03T12:21:44;102766.44;;;6.95;100.00
70546;BME280;58098;51.680;5.134;2023-03-03T12:47:05;102732.38;;;7.30;100.00
70546;BME280;58098;51.680;5.134;2023-03-03T12:55:29;102731.63;;;7.26;100.00
70546;BME280;58098;51.680;5.134;2023-03-03T12:58:35;102722.78;;;7.32;100.00
70546;BME280;58098;51.680;5.134;2023-03-03T13:01:24;102732.63;;;7.22;100.00
70546;BME280;58098;51.680;5.134;2023-03-03T13:06:32;102718.34;;;7.59;100.00
70546;BME280;58098;51.680;5.134;2023-03-03T13:14:56;102717.19;;;8.12;100.00
70546;BME280;58098;51.680;5.134;2023-03-03T13:17:32;102719.13;;;8.07;100.00
70546;BME280;58098;51.680;5.134;2023-03-03T13:20:11;102700.38;;;7.76;100.00
70546;BME280;58098;51.680;5.134;2023-03-03T13:23:12;102721.28;;;7.73;100.00
70546;BME280;58098;51.680;5.134;2023-03-03T13:26:03;102716.19;;;7.70;100.00
70546;BME280;58098;51.680;5.134;2023-03-03T13:28:34;102698.47;;;7.81;100.00
70546;BME280;58098;51.680;5.134;2023-03-03T13:31:07;102708.44;;;8.15;100.00
70546;BME280;58098;51.680;5.134;2023-03-03T13:33:36;102714.91;;;8.26;100.00
70546;BME280;58098;51.680;5.134;2023-03-03T13:36:07;102706.72;;;8.57;100.00
70546;BME280;58098;51.680;5.134;2023-03-03T13:38:42;102707.50;;;8.81;100.00
70546;BME280;58098;51.680;5.134;2023-03-03T13:41:16;102708.97;;;8.66;100.00
70546;BME280;58098;51.680;5.134;2023-03-03T13:43:54;102693.91;;;8.52;100.00
70546;BME280;58098;51.680;5.134;2023-03-03T13:46:32;102708.13;;;8.66;100.00
70546;BME280;58098;51.680;5.134;2023-03-03T13:52:08;102698.94;;;9.17;100.00
70546;BME280;58098;51.680;5.134;2023-03-03T13:54:55;102694.03;;;9.11;100.00
70546;BME280;58098;51.680;5.134;2023-03-03T13:57:47;102701.38;;;9.02;100.00
70546;BME280;58098;51.680;5.134;2023-03-03T14:00:21;102697.22;;;8.98;100.00
70546;BME280;58098;51.680;5.134;2023-03-03T14:05:29;102678.91;;;8.79;100.00
70546;BME280;58098;51.680;5.134;2023-03-03T14:08:08;102688.03;;;9.09;100.00
70546;BME280;58098;51.680;5.134;2023-03-03T14:15:42;102677.00;;;9.23;100.00
70546;BME280;58098;51.680;5.134;2023-03-03T14:18:27;102690.00;;;9.24;100.00
70546;BME280;58098;51.680;5.134;2023-03-03T14:20:58;102687.78;;;8.95;100.00
70546;BME280;58098;51.680;5.134;2023-03-03T14:26:21;102669.47;;;8.77;100.00
70546;BME280;58098;51.680;5.134;2023-03-03T14:28:48;102684.25;;;8.96;100.00
70546;BME280;58098;51.680;5.134;2023-03-03T14:31:38;102679.94;;;9.36;100.00
70546;BME280;58098;51.680;5.134;2023-03-03T14:36:51;102681.72;;;9.72;100.00
70546;BME280;58098;51.680;5.134;2023-03-03T14:41:57;102666.69;;;9.21;100.00
70546;BME280;58098;51.680;5.134;2023-03-03T14:44:35;102675.25;;;9.23;100.00
70546;BME280;58098;51.680;5.134;2023-03-03T14:49:37;102667.25;;;9.28;100.00
70546;BME280;58098;51.680;5.134;2023-03-03T14:52:17;102650.84;;;9.26;100.00
70546;BME280;58098;51.680;5.134;2023-03-03T14:54:52;102659.25;;;9.51;100.00
70546;BME280;58098;51.680;5.134;2023-03-03T15:02:42;102655.91;;;10.04;100.00
70546;BME280;58098;51.680;5.134;2023-03-03T15:05:22;102645.56;;;10.21;100.00
70546;BME280;58098;51.680;5.134;2023-03-03T15:10:41;102648.44;;;9.96;100.00
70546;BME280;58098;51.680;5.134;2023-03-03T15:18:25;102636.88;;;9.08;100.00
70546;BME280;58098;51.680;5.134;2023-03-03T15:26:37;102635.28;;;9.24;100.00
70546;BME280;58098;51.680;5.134;2023-03-03T15:29:14;102641.44;;;9.61;100.00
70546;BME280;58098;51.680;5.134;2023-03-03T15:40:30;102618.91;;;9.41;100.00
70546;BME280;58098;51.680;5.134;2023-03-03T15:51:07;102622.97;;;9.65;100.00
70546;BME280;58098;51.680;5.134;2023-03-03T15:56:56;102622.63;;;8.97;100.00
70546;BME280;58098;51.680;5.134;2023-03-03T16:02:23;102628.88;;;8.73;100.00
70546;BME280;58098;51.680;5.134;2023-03-03T16:04:58;102622.50;;;8.59;100.00
70546;BME280;58098;51.680;5.134;2023-03-03T16:10:26;102625.25;;;8.77;100.00
70546;BME280;58098;51.680;5.134;2023-03-03T16:16:19;102625.09;;;8.59;100.00
70546;BME280;58098;51.680;5.134;2023-03-03T16:27:43;102632.72;;;8.22;100.00
70546;BME280;58098;51.680;5.134;2023-03-03T16:32:46;102609.63;;;7.93;100.00
70546;BME280;58098;51.680;5.134;2023-03-03T16:38:00;102640.44;;;7.80;100.00
70546;BME280;58098;51.680;5.134;2023-03-03T16:43:05;102645.38;;;7.65;100.00
70546;BME280;58098;51.680;5.134;2023-03-03T16:45:37;102635.50;;;7.51;100.00
70546;BME280;58098;51.680;5.134;2023-03-03T16:48:19;102643.69;;;7.41;100.00
70546;BME280;58098;51.680;5.134;2023-03-03T16:53:47;102662.81;;;7.38;100.00
70546;BME280;58098;51.680;5.134;2023-03-03T16:56:35;102658.16;;;7.23;100.00
70546;BME280;58098;51.680;5.134;2023-03-03T17:25:20;102690.88;;;6.53;100.00
70546;BME280;58098;51.680;5.134;2023-03-03T17:38:37;102702.88;;;6.29;100.00
70546;BME280;58098;51.680;5.134;2023-03-03T17:41:10;102690.91;;;6.25;100.00
70546;BME280;58098;51.680;5.134;2023-03-03T17:43:58;102705.41;;;6.31;100.00